createdAt,value
2017-03-12T00:00:38.754Z,9.27
2017-03-12T00:01:39.509Z,9.34
2017-03-12T00:02:39.213Z,9.29
2017-03-12T00:03:39.482Z,9.28
2017-03-12T00:04:38.667Z,9.22
2017-03-12T00:05:39.036Z,9.29
2017-03-12T00:06:39.426Z,9.28
2017-03-12T00:07:39.016Z,9.37
2017-03-12T00:08:39.366Z,9.42
2017-03-12T00:09:39.014Z,9.37
2017-03-12T00:10:39.315Z,9.32
2017-03-12T00:11:39.294Z,9.35
2017-03-12T00:12:38.958Z,9.32
2017-03-12T00:13:38.872Z,9.34
2017-03-12T00:14:38.885Z,9.29
2017-03-12T00:15:38.441Z,9.28
2017-03-12T00:16:39.191Z,9.24
2017-03-12T00:17:39.200Z,9.19
2017-03-12T00:18:39.139Z,9.06
2017-03-12T00:19:38.362Z,9.05
2017-03-12T00:20:38.737Z,9.06
2017-03-12T00:21:39.137Z,8.94
2017-03-12T00:22:38.707Z,8.93
2017-03-12T00:23:39.064Z,8.94
2017-03-12T00:24:38.647Z,8.95
2017-03-12T00:25:38.644Z,9.09
2017-03-12T00:26:38.986Z,9.16
2017-03-12T00:27:38.575Z,8.91
2017-03-12T00:28:38.586Z,8.93
2017-03-12T00:29:38.924Z,9.02
2017-03-12T00:30:38.895Z,9.02
2017-03-12T00:31:38.880Z,8.91
2017-03-12T00:32:38.483Z,8.88
2017-03-12T00:33:38.860Z,8.69
2017-03-12T00:34:38.414Z,8.61
2017-03-12T00:35:38.791Z,8.67
2017-03-12T00:36:38.406Z,8.51
2017-03-12T00:37:38.766Z,8.55
2017-03-12T00:38:38.731Z,8.7
2017-03-12T00:39:37.941Z,8.62
2017-03-12T00:40:38.300Z,8.65
2017-03-12T00:41:38.673Z,8.65
2017-03-12T00:42:38.260Z,8.66
2017-03-12T00:43:38.627Z,8.67
2017-03-12T00:44:38.221Z,8.8
2017-03-12T00:45:38.596Z,8.69
2017-03-12T00:46:38.171Z,8.77
2017-03-12T00:47:38.547Z,8.94
2017-03-12T00:48:38.554Z,8.93
2017-03-12T00:49:37.709Z,8.84
2017-03-12T00:50:38.475Z,8.91
2017-03-12T00:51:38.072Z,8.72
2017-03-12T00:52:38.442Z,8.51
2017-03-12T00:53:37.646Z,8.45
2017-03-12T00:54:38.458Z,8.42
2017-03-12T00:55:38.381Z,8.47
2017-03-12T00:56:37.970Z,8.34
2017-03-12T00:57:37.940Z,8.42
2017-03-12T00:58:37.930Z,8.51
2017-03-12T00:59:37.913Z,8.37
2017-03-12T01:00:38.270Z,8.34
2017-03-12T01:01:37.858Z,8.42
2017-03-12T01:02:37.898Z,8.36
2017-03-12T01:03:38.213Z,8.47
2017-03-12T01:04:38.186Z,8.37
2017-03-12T01:05:38.175Z,8.34
2017-03-12T01:06:38.126Z,8.45
2017-03-12T01:07:37.738Z,8.47
2017-03-12T01:08:37.731Z,8.39
2017-03-12T01:09:37.667Z,8.5
2017-03-12T01:10:37.667Z,8.47
2017-03-12T01:11:38.026Z,8.47
2017-03-12T01:12:38.059Z,8.45
2017-03-12T01:13:37.590Z,8.47
2017-03-12T01:14:38.005Z,8.45
2017-03-12T01:15:37.929Z,8.47
2017-03-12T01:16:37.520Z,8.32
2017-03-12T01:17:37.149Z,8.39
2017-03-12T01:18:37.617Z,8.24
2017-03-12T01:19:37.457Z,8.34
2017-03-12T01:20:37.838Z,8.21
2017-03-12T01:21:37.407Z,8.25
2017-03-12T01:22:37.836Z,8.04
2017-03-12T01:23:37.406Z,8.24
2017-03-12T01:24:37.806Z,8.21
2017-03-12T01:25:37.776Z,8.03
2017-03-12T01:26:37.801Z,8.09
2017-03-12T01:27:37.320Z,8.04
2017-03-12T01:28:37.664Z,8.01
2017-03-12T01:29:36.879Z,7.96
2017-03-12T01:30:37.292Z,8
2017-03-12T01:31:37.602Z,7.91
2017-03-12T01:32:36.841Z,7.99
2017-03-12T01:33:37.560Z,7.97
2017-03-12T01:34:36.761Z,7.97
2017-03-12T01:35:37.515Z,8.03
2017-03-12T01:36:37.495Z,7.99
2017-03-12T01:37:37.587Z,8.18
2017-03-12T01:38:36.651Z,8.12
2017-03-12T01:39:37.034Z,8
2017-03-12T01:40:36.998Z,7.96
2017-03-12T01:41:37.372Z,8.03
2017-03-12T01:42:37.345Z,8.01
2017-03-12T01:43:37.364Z,7.93
2017-03-12T01:44:37.315Z,8.03
2017-03-12T01:45:36.877Z,7.82
2017-03-12T01:46:36.867Z,7.64
2017-03-12T01:47:36.894Z,7.68
2017-03-12T01:48:36.832Z,7.68
2017-03-12T01:49:37.207Z,7.59
2017-03-12T01:50:36.393Z,7.67
2017-03-12T01:51:36.373Z,7.73
2017-03-12T01:52:36.362Z,7.75
2017-03-12T01:53:36.730Z,7.78
2017-03-12T01:54:36.710Z,7.73
2017-03-12T01:55:36.668Z,7.73
2017-03-12T01:56:36.658Z,7.82
2017-03-12T01:57:37.016Z,7.88
2017-03-12T01:58:37.067Z,7.72
2017-03-12T01:59:36.973Z,7.78
2017-03-12T02:00:36.176Z,7.9
2017-03-12T02:01:36.946Z,7.94
2017-03-12T02:02:36.971Z,7.94
2017-03-12T02:03:36.525Z,7.93
2017-03-12T02:04:36.874Z,7.93
2017-03-12T02:05:36.458Z,7.94
2017-03-12T02:06:36.875Z,7.99
2017-03-12T02:07:36.792Z,8
2017-03-12T02:08:36.392Z,7.86
2017-03-12T02:09:36.362Z,7.86
2017-03-12T02:10:36.342Z,7.88
2017-03-12T02:11:36.711Z,7.88
2017-03-12T02:12:36.780Z,7.96
2017-03-12T02:13:36.675Z,7.81
2017-03-12T02:14:36.640Z,7.79
2017-03-12T02:15:36.619Z,7.76
2017-03-12T02:16:36.216Z,7.78
2017-03-12T02:17:36.598Z,7.67
2017-03-12T02:18:36.173Z,7.75
2017-03-12T02:19:36.140Z,7.73
2017-03-12T02:20:36.127Z,7.82
2017-03-12T02:21:36.144Z,7.78
2017-03-12T02:22:36.149Z,7.76
2017-03-12T02:23:36.070Z,7.73
2017-03-12T02:24:36.435Z,7.78
2017-03-12T02:25:36.403Z,7.78
2017-03-12T02:26:36.373Z,7.81
2017-03-12T02:27:36.364Z,7.76
2017-03-12T02:28:35.941Z,7.81
2017-03-12T02:29:36.307Z,7.9
2017-03-12T02:30:35.960Z,7.91
2017-03-12T02:31:35.880Z,7.75
2017-03-12T02:32:36.249Z,7.79
2017-03-12T02:33:35.440Z,7.64
2017-03-12T02:34:36.198Z,7.78
2017-03-12T02:35:35.432Z,7.78
2017-03-12T02:36:35.877Z,7.75
2017-03-12T02:37:35.366Z,7.63
2017-03-12T02:38:35.745Z,7.76
2017-03-12T02:39:36.106Z,7.78
2017-03-12T02:40:35.291Z,7.79
2017-03-12T02:41:36.056Z,7.68
2017-03-12T02:42:36.046Z,7.64
2017-03-12T02:43:36.051Z,7.78
2017-03-12T02:44:35.225Z,7.79
2017-03-12T02:45:35.672Z,7.86
2017-03-12T02:46:35.542Z,7.88
2017-03-12T02:47:35.132Z,7.68
2017-03-12T02:48:35.123Z,7.67
2017-03-12T02:49:35.880Z,7.76
2017-03-12T02:50:35.822Z,7.55
2017-03-12T02:51:35.825Z,7.68
2017-03-12T02:52:35.808Z,7.59
2017-03-12T02:53:35.003Z,7.7
2017-03-12T02:54:35.367Z,7.55
2017-03-12T02:55:35.756Z,7.63
2017-03-12T02:56:35.325Z,7.79
2017-03-12T02:57:35.316Z,7.6
2017-03-12T02:58:35.295Z,7.7
2017-03-12T02:59:34.885Z,7.68
2017-03-12T03:00:35.293Z,7.63
2017-03-12T03:01:35.283Z,7.68
2017-03-12T03:02:35.234Z,7.62
2017-03-12T03:03:35.562Z,7.64
2017-03-12T03:04:35.533Z,7.7
2017-03-12T03:05:35.512Z,7.76
2017-03-12T03:06:35.489Z,7.57
2017-03-12T03:07:35.475Z,7.52
2017-03-12T03:08:35.450Z,7.39
2017-03-12T03:09:35.100Z,7.42
2017-03-12T03:10:35.021Z,7.48
2017-03-12T03:11:35.386Z,7.49
2017-03-12T03:12:34.979Z,7.56
2017-03-12T03:13:35.002Z,7.53
2017-03-12T03:14:34.541Z,7.55
2017-03-12T03:15:35.315Z,7.42
2017-03-12T03:16:34.885Z,7.34
2017-03-12T03:17:35.246Z,7.23
2017-03-12T03:18:35.204Z,7.16
2017-03-12T03:19:34.822Z,7.09
2017-03-12T03:20:35.185Z,7.11
2017-03-12T03:21:34.785Z,7.16
2017-03-12T03:22:34.354Z,7.24
2017-03-12T03:23:35.103Z,7.17
2017-03-12T03:24:34.730Z,7.23
2017-03-12T03:25:34.962Z,7.23
2017-03-12T03:26:34.671Z,7.24
2017-03-12T03:27:34.626Z,7.23
2017-03-12T03:28:34.610Z,7.23
2017-03-12T03:29:34.599Z,7.29
2017-03-12T03:30:34.569Z,7.3
2017-03-12T03:31:34.924Z,7.31
2017-03-12T03:32:34.518Z,7.27
2017-03-12T03:33:34.488Z,7.3
2017-03-12T03:34:34.858Z,7.35
2017-03-12T03:35:34.846Z,7.29
2017-03-12T03:36:34.816Z,7.2
2017-03-12T03:37:34.413Z,7.17
2017-03-12T03:38:34.385Z,7.09
2017-03-12T03:39:34.371Z,7.14
2017-03-12T03:40:34.753Z,7.23
2017-03-12T03:41:34.310Z,7.21
2017-03-12T03:42:34.293Z,7.06
2017-03-12T03:43:34.673Z,6.87
2017-03-12T03:44:33.849Z,7.04
2017-03-12T03:45:34.242Z,7.08
2017-03-12T03:46:34.591Z,6.96
2017-03-12T03:47:34.576Z,6.86
2017-03-12T03:48:34.541Z,6.96
2017-03-12T03:49:34.530Z,6.98
2017-03-12T03:50:34.509Z,6.93
2017-03-12T03:51:34.588Z,7.05
2017-03-12T03:52:34.456Z,7.08
2017-03-12T03:53:34.473Z,7.05
2017-03-12T03:54:34.418Z,6.9
2017-03-12T03:55:34.445Z,6.86
2017-03-12T03:56:34.387Z,6.81
2017-03-12T03:57:34.374Z,6.83
2017-03-12T03:58:33.946Z,6.88
2017-03-12T03:59:34.345Z,6.93
2017-03-12T04:00:34.298Z,6.98
2017-03-12T04:01:34.302Z,6.96
2017-03-12T04:02:34.216Z,7.09
2017-03-12T04:03:33.827Z,7.05
2017-03-12T04:04:33.843Z,6.94
2017-03-12T04:05:34.181Z,6.98
2017-03-12T04:06:33.359Z,7.08
2017-03-12T04:07:33.439Z,7.05
2017-03-12T04:08:33.309Z,7.06
2017-03-12T04:09:34.093Z,7.08
2017-03-12T04:10:34.097Z,7.12
2017-03-12T04:11:33.239Z,7.17
2017-03-12T04:12:33.667Z,7.05
2017-03-12T04:13:34.016Z,7.06
2017-03-12T04:14:33.566Z,7.09
2017-03-12T04:15:34.025Z,7.08
2017-03-12T04:16:33.925Z,7.02
2017-03-12T04:17:33.644Z,7.06
2017-03-12T04:18:33.876Z,6.98
2017-03-12T04:19:33.903Z,6.88
2017-03-12T04:20:33.443Z,6.7
2017-03-12T04:21:33.492Z,6.86
2017-03-12T04:22:33.785Z,6.73
2017-03-12T04:23:33.465Z,6.77
2017-03-12T04:24:33.768Z,6.8
2017-03-12T04:25:33.430Z,6.86
2017-03-12T04:26:33.320Z,6.83
2017-03-12T04:27:33.292Z,6.83
2017-03-12T04:28:33.286Z,6.69
2017-03-12T04:29:33.240Z,6.72
2017-03-12T04:30:33.617Z,6.77
2017-03-12T04:31:33.556Z,6.72
2017-03-12T04:32:33.576Z,6.83
2017-03-12T04:33:32.757Z,6.84
2017-03-12T04:34:33.105Z,6.7
2017-03-12T04:35:33.112Z,6.7
2017-03-12T04:36:33.464Z,6.66
2017-03-12T04:37:33.035Z,6.54
2017-03-12T04:38:33.014Z,6.66
2017-03-12T04:39:32.606Z,6.63
2017-03-12T04:40:33.439Z,6.65
2017-03-12T04:41:33.345Z,6.63
2017-03-12T04:42:32.981Z,6.65
2017-03-12T04:43:32.519Z,6.73
2017-03-12T04:44:32.878Z,6.57
2017-03-12T04:45:33.360Z,6.5
2017-03-12T04:46:32.856Z,6.54
2017-03-12T04:47:33.269Z,6.48
2017-03-12T04:48:33.218Z,6.51
2017-03-12T04:49:33.239Z,6.55
2017-03-12T04:50:33.139Z,6.54
2017-03-12T04:51:32.726Z,6.52
2017-03-12T04:52:32.695Z,6.55
2017-03-12T04:53:33.094Z,6.55
2017-03-12T04:54:32.641Z,6.43
2017-03-12T04:55:33.146Z,6.43
2017-03-12T04:56:32.603Z,6.44
2017-03-12T04:57:32.581Z,6.45
2017-03-12T04:58:32.554Z,6.37
2017-03-12T04:59:32.543Z,6.4
2017-03-12T05:00:32.508Z,6.45
2017-03-12T05:01:32.489Z,6.3
2017-03-12T05:02:32.891Z,6.4
2017-03-12T05:03:32.430Z,6.37
2017-03-12T05:04:32.440Z,6.3
2017-03-12T05:05:32.880Z,6.29
2017-03-12T05:06:32.369Z,6.35
2017-03-12T05:07:32.363Z,6.44
2017-03-12T05:08:32.327Z,6.52
2017-03-12T05:09:32.703Z,6.45
2017-03-12T05:10:32.665Z,6.32
2017-03-12T05:11:32.639Z,6.37
2017-03-12T05:12:32.228Z,6.45
2017-03-12T05:13:32.196Z,6.36
2017-03-12T05:14:32.174Z,6.41
2017-03-12T05:15:32.557Z,6.44
2017-03-12T05:16:32.136Z,6.57
2017-03-12T05:17:32.114Z,6.48
2017-03-12T05:18:32.093Z,6.62
2017-03-12T05:19:31.742Z,6.51
2017-03-12T05:20:32.431Z,6.47
2017-03-12T05:21:32.411Z,6.44
2017-03-12T05:22:31.990Z,6.62
2017-03-12T05:23:31.989Z,6.37
2017-03-12T05:24:31.950Z,6.45
2017-03-12T05:25:32.321Z,6.52
2017-03-12T05:26:31.909Z,6.55
2017-03-12T05:27:32.258Z,6.43
2017-03-12T05:28:32.238Z,6.35
2017-03-12T05:29:31.461Z,6.44
2017-03-12T05:30:31.812Z,6.32
2017-03-12T05:31:31.793Z,6.36
2017-03-12T05:32:32.159Z,6.25
2017-03-12T05:33:32.124Z,6.36
2017-03-12T05:34:32.105Z,6.3
2017-03-12T05:35:32.093Z,6.37
2017-03-12T05:36:32.063Z,6.43
2017-03-12T05:37:32.046Z,6.27
2017-03-12T05:38:31.642Z,6.25
2017-03-12T05:39:31.210Z,6.27
2017-03-12T05:40:31.619Z,6.45
2017-03-12T05:41:31.580Z,6.35
2017-03-12T05:42:31.933Z,6.27
2017-03-12T05:43:31.902Z,6.33
2017-03-12T05:44:31.468Z,6.4
2017-03-12T05:45:31.849Z,6.37
2017-03-12T05:46:31.438Z,6.26
2017-03-12T05:47:31.817Z,6.13
2017-03-12T05:48:31.395Z,6.18
2017-03-12T05:49:31.763Z,6.33
2017-03-12T05:50:31.351Z,6.3
2017-03-12T05:51:31.714Z,6.25
2017-03-12T05:52:31.305Z,6.27
2017-03-12T05:53:30.904Z,6.16
2017-03-12T05:54:31.643Z,6.11
2017-03-12T05:55:31.668Z,6.11
2017-03-12T05:56:31.203Z,6.16
2017-03-12T05:57:31.572Z,6.14
2017-03-12T05:58:31.542Z,6.1
2017-03-12T05:59:31.130Z,6.25
2017-03-12T06:00:31.111Z,6.16
2017-03-12T06:01:31.491Z,6.11
2017-03-12T06:02:31.059Z,6.08
2017-03-12T06:03:31.053Z,6.08
2017-03-12T06:04:31.020Z,6.27
2017-03-12T06:05:31.419Z,6.18
2017-03-12T06:06:30.967Z,6.08
2017-03-12T06:07:30.940Z,6.14
2017-03-12T06:08:30.917Z,6.13
2017-03-12T06:09:30.905Z,6.25
2017-03-12T06:10:31.294Z,6.3
2017-03-12T06:11:30.847Z,6.3
2017-03-12T06:12:30.854Z,6.26
2017-03-12T06:13:30.804Z,6.36
2017-03-12T06:14:30.382Z,6.37
2017-03-12T06:15:30.769Z,6.48
2017-03-12T06:16:30.722Z,6.44
2017-03-12T06:17:30.714Z,6.45
2017-03-12T06:18:31.095Z,6.55
2017-03-12T06:19:31.070Z,6.41
2017-03-12T06:20:31.058Z,6.47
2017-03-12T06:21:30.226Z,6.57
2017-03-12T06:22:30.979Z,6.59
2017-03-12T06:23:30.567Z,6.47
2017-03-12T06:24:30.937Z,6.48
2017-03-12T06:25:30.917Z,6.45
2017-03-12T06:26:30.095Z,6.5
2017-03-12T06:27:30.476Z,6.55
2017-03-12T06:28:30.466Z,6.63
2017-03-12T06:29:30.823Z,6.52
2017-03-12T06:30:30.793Z,6.65
2017-03-12T06:31:30.373Z,6.7
2017-03-12T06:32:30.357Z,6.62
2017-03-12T06:33:30.744Z,6.51
2017-03-12T06:34:30.316Z,6.52
2017-03-12T06:35:30.671Z,6.62
2017-03-12T06:36:30.262Z,6.7
2017-03-12T06:37:30.631Z,6.69
2017-03-12T06:38:30.613Z,6.86
2017-03-12T06:39:30.599Z,7.04
2017-03-12T06:40:30.219Z,7.26
2017-03-12T06:41:30.539Z,7.29
2017-03-12T06:42:30.521Z,7.23
2017-03-12T06:43:30.105Z,7.31
2017-03-12T06:44:29.755Z,7.14
2017-03-12T06:45:30.438Z,7.16
2017-03-12T06:46:30.054Z,7.26
2017-03-12T06:47:30.404Z,7.21
2017-03-12T06:48:29.980Z,7.11
2017-03-12T06:49:29.976Z,7.3
2017-03-12T06:50:30.046Z,7.2
2017-03-12T06:51:30.304Z,7.14
2017-03-12T06:52:29.903Z,7.42
2017-03-12T06:53:29.881Z,8.29
2017-03-12T06:54:29.852Z,8.77
2017-03-12T06:55:29.831Z,9.13
2017-03-12T06:56:29.881Z,9.56
2017-03-12T06:57:30.174Z,9.62
2017-03-12T06:58:29.760Z,10.16
2017-03-12T06:59:29.761Z,10.19
2017-03-12T07:00:29.725Z,10.72
2017-03-12T07:01:29.719Z,10.9
2017-03-12T07:02:29.303Z,11.48
2017-03-12T07:03:29.727Z,11.64
2017-03-12T07:04:30.036Z,11.71
2017-03-12T07:05:29.634Z,11.61
2017-03-12T07:06:29.595Z,11.94
2017-03-12T07:07:29.579Z,11.98
2017-03-12T07:08:29.945Z,12.42
2017-03-12T07:09:30.063Z,12.17
2017-03-12T07:10:29.892Z,12.48
2017-03-12T07:11:29.937Z,12.4
2017-03-12T07:12:29.866Z,12.53
2017-03-12T07:13:29.083Z,12.31
2017-03-12T07:14:29.102Z,12.34
2017-03-12T07:15:29.839Z,12.34
2017-03-12T07:16:29.406Z,12.21
2017-03-12T07:17:28.989Z,12.07
2017-03-12T07:18:29.749Z,11.94
2017-03-12T07:19:29.468Z,11.76
2017-03-12T07:20:29.357Z,11.42
2017-03-12T07:21:29.349Z,11.71
2017-03-12T07:22:29.657Z,11.95
2017-03-12T07:23:28.887Z,11.75
2017-03-12T07:24:29.641Z,11.58
2017-03-12T07:25:29.266Z,11.18
2017-03-12T07:26:29.613Z,11.53
2017-03-12T07:27:29.254Z,11.5
2017-03-12T07:28:29.173Z,10.87
2017-03-12T07:29:29.558Z,11.43
2017-03-12T07:30:29.543Z,11.9
2017-03-12T07:31:29.616Z,12.43
2017-03-12T07:32:29.127Z,12.89
2017-03-12T07:33:29.471Z,13.41
2017-03-12T07:34:29.082Z,12.88
2017-03-12T07:35:29.474Z,12.81
2017-03-12T07:36:28.635Z,13.22
2017-03-12T07:37:29.387Z,13.23
2017-03-12T07:38:28.998Z,13.14
2017-03-12T07:39:29.473Z,12.96
2017-03-12T07:40:29.352Z,12.2
2017-03-12T07:41:28.946Z,11.71
2017-03-12T07:42:29.002Z,11.5
2017-03-12T07:43:29.396Z,11.76
2017-03-12T07:44:29.387Z,11.33
2017-03-12T07:45:28.898Z,11.36
2017-03-12T07:46:29.300Z,11.61
2017-03-12T07:47:29.363Z,11.94
2017-03-12T07:48:28.823Z,11.73
2017-03-12T07:49:28.804Z,11.72
2017-03-12T07:50:29.274Z,11.94
2017-03-12T07:51:29.234Z,11.9
2017-03-12T07:52:29.252Z,11.83
2017-03-12T07:53:28.740Z,12.45
2017-03-12T07:54:29.166Z,12.42
2017-03-12T07:55:29.110Z,12.61
2017-03-12T07:56:29.094Z,12.45
2017-03-12T07:57:29.071Z,12.34
2017-03-12T07:58:28.668Z,12.57
2017-03-12T07:59:28.656Z,13.1
2017-03-12T08:00:29.078Z,13.35
2017-03-12T08:01:29.008Z,13.57
2017-03-12T08:02:29.015Z,13.59
2017-03-12T08:03:28.590Z,13.9
2017-03-12T08:04:28.584Z,14.15
2017-03-12T08:05:28.975Z,13.57
2017-03-12T08:06:28.554Z,12.6
2017-03-12T08:07:28.940Z,12.4
2017-03-12T08:08:28.914Z,12.35
2017-03-12T08:09:28.514Z,12.43
2017-03-12T08:10:28.101Z,13.16
2017-03-12T08:11:28.871Z,13.84
2017-03-12T08:12:28.471Z,14.44
2017-03-12T08:13:28.855Z,14.57
2017-03-12T08:14:28.463Z,13.84
2017-03-12T08:15:28.451Z,13.74
2017-03-12T08:16:28.433Z,14.15
2017-03-12T08:17:28.408Z,14.18
2017-03-12T08:18:28.012Z,13.57
2017-03-12T08:19:28.398Z,13.53
2017-03-12T08:20:27.995Z,13.19
2017-03-12T08:21:28.345Z,13.72
2017-03-12T08:22:28.352Z,13.96
2017-03-12T08:23:28.358Z,14.38
2017-03-12T08:24:28.793Z,13.48
2017-03-12T08:25:28.709Z,13.55
2017-03-12T08:26:28.312Z,14.15
2017-03-12T08:27:28.684Z,14.22
2017-03-12T08:28:28.503Z,14.48
2017-03-12T08:29:28.253Z,14.54
2017-03-12T08:30:28.644Z,14.96
2017-03-12T08:31:28.621Z,14.62
2017-03-12T08:32:28.621Z,13.99
2017-03-12T08:33:28.610Z,14.02
2017-03-12T08:34:28.599Z,13.99
2017-03-12T08:35:28.599Z,14.44
2017-03-12T08:36:28.633Z,14.03
2017-03-12T08:37:28.169Z,13.77
2017-03-12T08:38:28.179Z,13.45
2017-03-12T08:39:28.536Z,13.74
2017-03-12T08:40:28.527Z,13.66
2017-03-12T08:41:28.526Z,13.8
2017-03-12T08:42:28.506Z,13.63
2017-03-12T08:43:28.476Z,13.1
2017-03-12T08:44:28.085Z,13.56
2017-03-12T08:45:28.476Z,13.56
2017-03-12T08:46:28.046Z,13.45
2017-03-12T08:47:28.440Z,13.1
2017-03-12T08:48:28.430Z,12.5
2017-03-12T08:49:28.028Z,12.4
2017-03-12T08:50:28.401Z,12.61
2017-03-12T08:51:28.436Z,13.16
2017-03-12T08:52:28.389Z,13.31
2017-03-12T08:53:27.973Z,13.29
2017-03-12T08:54:28.349Z,13.16
2017-03-12T08:55:28.338Z,13.47
2017-03-12T08:56:28.309Z,13.82
2017-03-12T08:57:27.905Z,13.81
2017-03-12T08:58:27.511Z,13.92
2017-03-12T08:59:27.898Z,14.33
2017-03-12T09:00:28.267Z,14.44
2017-03-12T09:01:27.903Z,14.87
2017-03-12T09:02:28.269Z,15.24
2017-03-12T09:03:27.886Z,15.46
2017-03-12T09:04:28.214Z,15.52
2017-03-12T09:05:28.235Z,15.34
2017-03-12T09:06:28.216Z,15.65
2017-03-12T09:07:27.804Z,15.85
2017-03-12T09:08:27.794Z,15.6
2017-03-12T09:09:28.155Z,15.25
2017-03-12T09:10:27.772Z,14.98
2017-03-12T09:11:27.842Z,15.1
2017-03-12T09:12:27.814Z,15.53
2017-03-12T09:13:28.130Z,16.01
2017-03-12T09:14:27.341Z,16.15
2017-03-12T09:15:27.800Z,15.65
2017-03-12T09:16:27.308Z,14.91
2017-03-12T09:17:27.354Z,15.09
2017-03-12T09:18:28.135Z,15.49
2017-03-12T09:19:27.691Z,16.23
2017-03-12T09:20:28.106Z,16.91
2017-03-12T09:21:28.135Z,16.79
2017-03-12T09:22:27.650Z,16.56
2017-03-12T09:23:28.030Z,16.66
2017-03-12T09:24:27.639Z,16.64
2017-03-12T09:25:28.094Z,16.42
2017-03-12T09:26:28.012Z,16.61
2017-03-12T09:27:27.326Z,16.42
2017-03-12T09:28:27.592Z,15.92
2017-03-12T09:29:27.210Z,15.62
2017-03-12T09:30:27.180Z,15.52
2017-03-12T09:31:28.015Z,15.71
2017-03-12T09:32:27.949Z,15.79
2017-03-12T09:33:27.953Z,15.52
2017-03-12T09:34:28.174Z,15.87
2017-03-12T09:35:27.547Z,16.05
2017-03-12T09:36:27.526Z,16.71
2017-03-12T09:37:27.914Z,16.75
2017-03-12T09:38:27.913Z,16.28
2017-03-12T09:39:27.632Z,16.26
2017-03-12T09:40:27.525Z,16.41
2017-03-12T09:41:27.873Z,16.61
2017-03-12T09:42:27.485Z,16.78
2017-03-12T09:43:27.863Z,17.46
2017-03-12T09:44:27.844Z,18.2
2017-03-12T09:45:27.845Z,18.29
2017-03-12T09:46:27.438Z,18.47
2017-03-12T09:47:27.839Z,18.38
2017-03-12T09:48:27.456Z,17.74
2017-03-12T09:49:27.810Z,17.21
2017-03-12T09:50:27.512Z,17.08
2017-03-12T09:51:27.798Z,17.71
2017-03-12T09:52:27.031Z,17.98
2017-03-12T09:53:27.792Z,17.55
2017-03-12T09:54:27.398Z,16.89
2017-03-12T09:55:27.388Z,16.69
2017-03-12T09:56:27.429Z,16.2
2017-03-12T09:57:27.807Z,16.94
2017-03-12T09:58:27.355Z,16.43
2017-03-12T09:59:27.837Z,16.64
2017-03-12T10:00:27.336Z,16.07
2017-03-12T10:01:27.825Z,16.81
2017-03-12T10:02:27.337Z,16.36
2017-03-12T10:03:27.705Z,16.91
2017-03-12T10:04:27.716Z,17.27
2017-03-12T10:05:27.713Z,16.74
2017-03-12T10:06:27.301Z,16.83
2017-03-12T10:07:27.674Z,16.39
2017-03-12T10:08:26.884Z,16.56
2017-03-12T10:09:27.666Z,17.15
2017-03-12T10:10:27.269Z,16.94
2017-03-12T10:11:27.669Z,17.62
2017-03-12T10:12:27.659Z,17.51
2017-03-12T10:13:27.619Z,18.11
2017-03-12T10:14:27.652Z,17.92
2017-03-12T10:15:27.677Z,18.12
2017-03-12T10:16:27.213Z,18.45
2017-03-12T10:17:27.599Z,18.32
2017-03-12T10:18:27.568Z,18.6
2017-03-12T10:19:26.828Z,18.63
2017-03-12T10:20:27.181Z,18.04
2017-03-12T10:21:27.162Z,18.32
2017-03-12T10:22:27.561Z,18.52
2017-03-12T10:23:27.554Z,18.04
2017-03-12T10:24:27.157Z,17.6
2017-03-12T10:25:27.527Z,17.44
2017-03-12T10:26:27.521Z,17.98
2017-03-12T10:27:27.527Z,17.95
2017-03-12T10:28:26.730Z,18.37
2017-03-12T10:29:27.483Z,18.38
2017-03-12T10:30:27.470Z,18.4
2017-03-12T10:31:27.084Z,18.85
2017-03-12T10:32:27.090Z,19.41
2017-03-12T10:33:27.074Z,19.31
2017-03-12T10:34:27.466Z,19.16
2017-03-12T10:35:27.045Z,19.74
2017-03-12T10:36:27.122Z,19.53
2017-03-12T10:37:27.525Z,19.37
2017-03-12T10:38:27.508Z,19.4
2017-03-12T10:39:26.996Z,18.75
2017-03-12T10:40:27.379Z,19.25
2017-03-12T10:41:26.993Z,18.69
2017-03-12T10:42:27.071Z,18.84
2017-03-12T10:43:27.412Z,18.8
2017-03-12T10:44:27.343Z,19.52
2017-03-12T10:45:26.582Z,19.78
2017-03-12T10:46:27.392Z,19.41
2017-03-12T10:47:27.325Z,18.95
2017-03-12T10:48:26.922Z,19.15
2017-03-12T10:49:27.380Z,19.66
2017-03-12T10:50:26.903Z,19.52
2017-03-12T10:51:26.888Z,19.11
2017-03-12T10:52:27.286Z,18.87
2017-03-12T10:53:26.887Z,18.41
2017-03-12T10:54:27.267Z,18.77
2017-03-12T10:55:27.247Z,18.6
2017-03-12T10:56:27.235Z,18.8
2017-03-12T10:57:26.825Z,19.52
2017-03-12T10:58:27.212Z,19.95
2017-03-12T10:59:26.805Z,19.04
2017-03-12T11:00:27.206Z,19.23
2017-03-12T11:01:26.799Z,19.77
2017-03-12T11:02:27.193Z,19.31
2017-03-12T11:03:26.782Z,20.08
2017-03-12T11:04:26.780Z,19.83
2017-03-12T11:05:27.147Z,18.4
2017-03-12T11:06:27.152Z,18.04
2017-03-12T11:07:26.746Z,17.54
2017-03-12T11:08:27.119Z,17.96
2017-03-12T11:09:27.098Z,18.42
2017-03-12T11:10:27.100Z,18.85
2017-03-12T11:11:26.710Z,18.7
2017-03-12T11:12:26.678Z,18.52
2017-03-12T11:13:27.058Z,17.83
2017-03-12T11:14:27.056Z,17.49
2017-03-12T11:15:26.636Z,17.45
2017-03-12T11:16:27.037Z,17.8
2017-03-12T11:17:27.003Z,17.98
2017-03-12T11:18:26.601Z,18.25
2017-03-12T11:19:26.962Z,19.12
2017-03-12T11:20:26.977Z,19.38
2017-03-12T11:21:26.191Z,18.84
2017-03-12T11:22:26.952Z,19.26
2017-03-12T11:23:26.568Z,19.52
2017-03-12T11:24:26.921Z,19.26
2017-03-12T11:25:26.528Z,19.36
2017-03-12T11:26:26.519Z,19.63
2017-03-12T11:27:26.913Z,19.4
2017-03-12T11:28:26.972Z,19.19
2017-03-12T11:29:26.878Z,18.45
2017-03-12T11:30:26.863Z,18.44
2017-03-12T11:31:26.847Z,18.88
2017-03-12T11:32:26.446Z,18.66
2017-03-12T11:33:26.431Z,19.15
2017-03-12T11:34:26.794Z,19.41
2017-03-12T11:35:26.785Z,18.7
2017-03-12T11:36:26.769Z,18.95
2017-03-12T11:37:26.777Z,18.26
2017-03-12T11:38:26.357Z,17.65
2017-03-12T11:39:26.352Z,17.52
2017-03-12T11:40:26.753Z,18.1
2017-03-12T11:41:26.741Z,18.42
2017-03-12T11:42:26.311Z,18.55
2017-03-12T11:43:26.710Z,18.93
2017-03-12T11:44:26.809Z,19.38
2017-03-12T11:45:26.278Z,18.73
2017-03-12T11:46:26.661Z,18.42
2017-03-12T11:47:26.658Z,18.35
2017-03-12T11:48:25.955Z,17.98
2017-03-12T11:49:26.228Z,17.51
2017-03-12T11:50:26.597Z,17.31
2017-03-12T11:51:26.197Z,17.78
2017-03-12T11:52:26.576Z,17.98
2017-03-12T11:53:26.565Z,17.95
2017-03-12T11:54:25.835Z,17.82
2017-03-12T11:55:25.773Z,18.42
2017-03-12T11:56:26.253Z,19.34
2017-03-12T11:57:26.503Z,19.08
2017-03-12T11:58:26.585Z,18.97
2017-03-12T11:59:26.492Z,19.06
2017-03-12T12:00:26.530Z,19.52
2017-03-12T12:01:26.454Z,19.83
2017-03-12T12:02:25.700Z,20.18
2017-03-12T12:03:26.074Z,19.52
2017-03-12T12:04:26.449Z,19.52
2017-03-12T12:05:26.489Z,19.18
2017-03-12T12:06:26.397Z,18.42
2017-03-12T12:07:25.989Z,17.87
2017-03-12T12:08:25.607Z,17.93
2017-03-12T12:09:25.689Z,18.26
2017-03-12T12:10:26.366Z,18.55
2017-03-12T12:11:25.945Z,18.5
2017-03-12T12:12:26.333Z,18.75
2017-03-12T12:13:26.333Z,19.02
2017-03-12T12:14:26.332Z,18.75
2017-03-12T12:15:26.341Z,18.77
2017-03-12T12:16:26.300Z,18.75
2017-03-12T12:17:25.889Z,19
2017-03-12T12:18:26.302Z,18.65
2017-03-12T12:19:26.220Z,18.92
2017-03-12T12:20:26.190Z,19.48
2017-03-12T12:21:26.223Z,18.58
2017-03-12T12:22:26.226Z,18.44
2017-03-12T12:23:25.810Z,19.26
2017-03-12T12:24:26.151Z,19.52
2017-03-12T12:25:26.170Z,19.77
2017-03-12T12:26:26.129Z,19.59
2017-03-12T12:27:26.116Z,19.33
2017-03-12T12:28:26.100Z,19.33
2017-03-12T12:29:25.705Z,19.96
2017-03-12T12:30:26.072Z,20.28
2017-03-12T12:31:26.071Z,20.2
2017-03-12T12:32:25.752Z,20.2
2017-03-12T12:33:25.651Z,20.14
2017-03-12T12:34:26.033Z,20.22
2017-03-12T12:35:25.620Z,20.29
2017-03-12T12:36:25.599Z,20.14
2017-03-12T12:37:26.004Z,19.81
2017-03-12T12:38:25.620Z,19.4
2017-03-12T12:39:25.968Z,19.22
2017-03-12T12:40:25.560Z,19.3
2017-03-12T12:41:25.163Z,19.3
2017-03-12T12:42:25.954Z,19.28
2017-03-12T12:43:25.524Z,19.51
2017-03-12T12:44:25.564Z,19.95
2017-03-12T12:45:25.506Z,20.14
2017-03-12T12:46:25.855Z,19.59
2017-03-12T12:47:25.861Z,18.67
2017-03-12T12:48:25.896Z,18.44
2017-03-12T12:49:25.861Z,18.78
2017-03-12T12:50:25.851Z,18.42
2017-03-12T12:51:25.922Z,18.88
2017-03-12T12:52:25.404Z,18.9
2017-03-12T12:53:25.402Z,18.99
2017-03-12T12:54:25.380Z,19.41
2017-03-12T12:55:25.364Z,19.52
2017-03-12T12:56:25.733Z,19.25
2017-03-12T12:57:25.340Z,19.44
2017-03-12T12:58:25.733Z,20.23
2017-03-12T12:59:25.793Z,20.76
2017-03-12T13:00:24.922Z,19.78
2017-03-12T13:01:25.272Z,19.83
2017-03-12T13:02:25.288Z,18.41
2017-03-12T13:03:25.646Z,18.95
2017-03-12T13:04:25.636Z,19.37
2017-03-12T13:05:25.248Z,19.59
2017-03-12T13:06:25.215Z,19.31
2017-03-12T13:07:25.684Z,19.02
2017-03-12T13:08:25.261Z,18.82